createdAt,value
2019-06-04T00:01:22.021Z,4.50
2019-06-04T00:03:35.592Z,4.57
2019-06-04T00:06:04.947Z,4.23
2019-06-04T00:08:34.201Z,4.70
2019-06-04T00:11:05.258Z,5.30
2019-06-04T00:13:34.500Z,4.40
2019-06-04T00:16:04.918Z,5.20
2019-06-04T00:18:34.612Z,4.03
2019-06-04T00:21:04.788Z,4.67
2019-06-04T00:23:34.170Z,4.77
2019-06-04T00:26:07.995Z,5.40
2019-06-04T00:28:34.388Z,5.00
2019-06-04T00:31:04.536Z,4.50
2019-06-04T00:33:33.910Z,4.43
2019-06-04T00:36:04.512Z,4.37
2019-06-04T00:38:34.052Z,4.80
2019-06-04T00:41:03.891Z,4.70
2019-06-04T00:43:34.403Z,5.10
2019-06-04T00:46:05.044Z,5.73
2019-06-04T00:48:34.476Z,4.50
2019-06-04T00:51:05.055Z,5.47
2019-06-04T00:53:34.526Z,4.57
2019-06-04T00:56:05.218Z,6.50
2019-06-04T00:58:35.690Z,4.73
2019-06-04T01:01:06.072Z,5.23
2019-06-04T01:03:35.613Z,5.67
2019-06-04T01:06:06.033Z,4.80
2019-06-04T01:08:35.560Z,4.83
2019-06-04T01:11:06.080Z,4.60
2019-06-04T01:13:35.617Z,4.97
2019-06-04T01:16:06.320Z,5.17
2019-06-04T01:18:35.718Z,6.77
2019-06-04T01:21:06.964Z,5.17
2019-06-04T01:23:38.140Z,4.97
2019-06-04T01:26:07.914Z,4.73
2019-06-04T01:28:37.382Z,5.13
2019-06-04T01:31:08.141Z,5.40
2019-06-04T01:33:40.291Z,5.17
2019-06-04T01:36:08.846Z,5.60
2019-06-04T01:38:38.167Z,5.20
2019-06-04T01:41:07.364Z,6.13
2019-06-04T01:43:36.717Z,5.07
2019-06-04T01:46:05.993Z,5.50
2019-06-04T01:48:35.249Z,5.43
2019-06-04T01:51:06.008Z,5.30
2019-06-04T01:53:35.392Z,6.23
2019-06-04T01:56:04.713Z,5.77
2019-06-04T01:58:34.162Z,6.70
2019-06-04T02:01:03.332Z,6.03
2019-06-04T02:03:33.282Z,5.40
2019-06-04T02:06:03.793Z,6.70
2019-06-04T02:08:33.178Z,5.50
2019-06-04T02:11:02.358Z,6.40
2019-06-04T02:13:31.654Z,5.83
2019-06-04T02:16:02.455Z,6.83
2019-06-04T02:18:31.724Z,7.53
2019-06-04T02:21:00.961Z,7.00
2019-06-04T02:23:30.314Z,8.83
2019-06-04T02:25:59.499Z,9.00
2019-06-04T02:28:29.156Z,10.10
2019-06-04T02:30:58.435Z,9.87
2019-06-04T02:33:27.624Z,6.87
2019-06-04T02:35:58.983Z,7.13
2019-06-04T02:38:28.218Z,8.87
2019-06-04T02:40:57.483Z,8.47
2019-06-04T02:43:27.164Z,8.63
2019-06-04T02:45:57.380Z,9.47
2019-06-04T02:48:27.757Z,8.70
2019-06-04T02:50:58.182Z,7.80
2019-06-04T02:53:28.911Z,8.43
2019-06-04T02:55:58.211Z,8.13
2019-06-04T02:58:27.530Z,8.07
2019-06-04T03:01:01.566Z,7.90
2019-06-04T03:03:32.229Z,7.73
2019-06-04T03:06:02.292Z,7.43
2019-06-04T03:08:31.580Z,7.50
2019-06-04T03:11:01.823Z,6.93
2019-06-04T03:13:31.061Z,8.47
2019-06-04T03:16:00.310Z,9.37
2019-06-04T03:18:29.507Z,7.87
2019-06-04T03:20:58.842Z,7.13
2019-06-04T03:23:28.825Z,8.37
2019-06-04T03:25:57.976Z,8.80
2019-06-04T03:28:27.278Z,9.90
2019-06-04T03:30:56.526Z,8.17
2019-06-04T03:33:53.382Z,8.83
2019-06-04T03:35:56.726Z,8.77
2019-06-04T03:38:26.035Z,8.80
2019-06-04T03:40:55.323Z,10.83
2019-06-04T03:43:24.686Z,8.80
2019-06-04T03:45:53.925Z,9.20
2019-06-04T03:48:24.829Z,7.97
2019-06-04T03:50:54.329Z,7.97
2019-06-04T03:53:24.872Z,8.20
2019-06-04T03:55:54.292Z,10.23
2019-06-04T03:58:24.661Z,9.87
2019-06-04T04:00:54.058Z,7.97
2019-06-04T04:03:24.230Z,8.50
2019-06-04T04:05:54.264Z,7.77
2019-06-04T04:08:29.185Z,9.33
2019-06-04T04:10:58.221Z,8.80
2019-06-04T04:13:29.091Z,10.53
2019-06-04T04:15:58.545Z,9.00
2019-06-04T04:18:29.286Z,8.83
2019-06-04T04:20:58.652Z,9.27
2019-06-04T04:23:28.103Z,9.60
2019-06-04T04:25:57.524Z,9.43
2019-06-04T04:28:26.931Z,8.23
2019-06-04T04:30:56.209Z,9.13
2019-06-04T04:33:26.315Z,9.23
2019-06-04T04:35:55.879Z,8.77
2019-06-04T04:38:27.274Z,8.60
2019-06-04T04:40:56.796Z,7.97
2019-06-04T04:43:26.511Z,8.80
2019-06-04T04:45:59.112Z,8.77
2019-06-04T04:48:29.492Z,8.90
2019-06-04T04:51:03.270Z,10.83
2019-06-04T04:53:32.593Z,9.13
2019-06-04T04:56:01.913Z,9.57
2019-06-04T04:58:31.189Z,8.37
2019-06-04T05:01:02.754Z,8.73
2019-06-04T05:03:32.062Z,9.23
2019-06-04T05:06:01.860Z,8.17
2019-06-04T05:08:33.956Z,7.87
2019-06-04T05:11:04.084Z,17.03
2019-06-04T05:13:34.722Z,15.50
2019-06-04T05:16:05.972Z,9.33
2019-06-04T05:18:37.298Z,8.20
2019-06-04T05:21:06.983Z,9.17
2019-06-04T05:23:36.418Z,10.33
2019-06-04T05:26:05.611Z,10.53
2019-06-04T05:28:34.818Z,9.77
2019-06-04T05:31:04.345Z,8.70
2019-06-04T05:33:33.589Z,9.47
2019-06-04T05:36:02.815Z,8.63
2019-06-04T05:38:32.781Z,9.47
2019-06-04T05:41:02.164Z,8.37
2019-06-04T05:43:35.269Z,9.10
2019-06-04T05:46:04.522Z,8.90
2019-06-04T05:48:33.871Z,8.10
2019-06-04T05:51:03.252Z,11.13
2019-06-04T05:53:33.160Z,8.00
2019-06-04T05:56:03.885Z,7.90
2019-06-04T05:58:33.414Z,8.27
2019-06-04T06:01:03.015Z,8.77
2019-06-04T06:03:33.747Z,9.43
2019-06-04T06:06:03.372Z,9.70
2019-06-04T06:08:33.912Z,7.40
2019-06-04T06:11:03.584Z,7.53
2019-06-04T06:13:34.271Z,8.83
2019-06-04T06:16:03.969Z,9.07
2019-06-04T06:18:34.667Z,8.73
2019-06-04T06:21:10.457Z,8.27
2019-06-04T06:23:39.906Z,8.80
2019-06-04T06:26:09.093Z,7.70
2019-06-04T06:28:38.344Z,7.23
2019-06-04T06:31:07.620Z,8.83
2019-06-04T06:33:38.239Z,8.47
2019-06-04T06:36:08.100Z,8.23
2019-06-04T06:38:54.022Z,7.63
2019-06-04T06:41:08.539Z,8.53
2019-06-04T06:43:37.819Z,7.87
2019-06-04T06:46:07.177Z,7.27
2019-06-04T06:48:36.386Z,6.23
2019-06-04T06:51:05.716Z,7.20
2019-06-04T06:53:36.347Z,6.63
2019-06-04T06:56:05.756Z,6.63
2019-06-04T06:58:38.679Z,7.50
2019-06-04T07:01:07.868Z,6.40
2019-06-04T07:03:39.077Z,6.77
2019-06-04T07:06:08.722Z,6.70
2019-06-04T07:08:38.673Z,6.60
2019-06-04T07:11:10.458Z,7.73
2019-06-04T07:13:42.129Z,6.07
2019-06-04T07:16:11.236Z,7.60
2019-06-04T07:18:40.916Z,5.50
2019-06-04T07:21:10.427Z,6.33
2019-06-04T07:23:41.578Z,12.07
2019-06-04T07:26:10.599Z,7.77
2019-06-04T07:28:41.762Z,6.20
2019-06-04T07:31:11.372Z,6.87
2019-06-04T07:33:41.364Z,7.97
2019-06-04T07:36:23.852Z,7.23
2019-06-04T07:38:41.998Z,7.33
2019-06-04T07:41:11.475Z,6.30
2019-06-04T07:43:49.825Z,6.70
2019-06-04T07:46:11.874Z,7.00
2019-06-04T07:48:45.885Z,10.07
2019-06-04T07:51:12.147Z,6.50
2019-06-04T07:53:41.924Z,9.77
2019-06-04T07:56:11.372Z,7.53
2019-06-04T07:58:40.649Z,6.43
2019-06-04T08:01:09.893Z,7.07
2019-06-04T08:03:40.367Z,6.53
2019-06-04T08:06:10.227Z,6.70
2019-06-04T08:08:41.078Z,6.90
2019-06-04T08:11:10.449Z,6.30
2019-06-04T08:13:40.146Z,7.40
2019-06-04T08:16:10.759Z,7.27
2019-06-04T08:18:39.987Z,7.57
2019-06-04T08:21:09.201Z,7.33
2019-06-04T08:23:39.908Z,7.03
2019-06-04T08:26:09.546Z,7.40
2019-06-04T08:28:40.827Z,7.20
2019-06-04T08:31:15.919Z,7.30
2019-06-04T08:33:45.401Z,7.13
2019-06-04T08:36:14.825Z,6.33
2019-06-04T08:38:53.838Z,6.27
2019-06-04T08:41:15.045Z,6.80
2019-06-04T08:43:45.841Z,5.87
2019-06-04T08:46:15.655Z,7.60
2019-06-04T08:48:46.322Z,5.87
2019-06-04T08:51:16.175Z,6.60
2019-06-04T08:53:46.612Z,6.30
2019-06-04T08:56:16.609Z,5.90
2019-06-04T08:58:46.441Z,5.90
2019-06-04T09:01:16.198Z,6.83
2019-06-04T09:03:46.339Z,6.90
2019-06-04T09:06:16.178Z,8.00
2019-06-04T09:08:46.955Z,6.07
2019-06-04T09:11:16.622Z,6.50
2019-06-04T09:13:47.354Z,6.60
2019-06-04T09:16:17.960Z,8.30
2019-06-04T09:18:50.589Z,6.80
2019-06-04T09:21:20.062Z,7.57
2019-06-04T09:23:49.350Z,7.33
2019-06-04T09:26:18.582Z,6.50
2019-06-04T09:28:49.433Z,6.27
2019-06-04T09:31:27.073Z,7.00
2019-06-04T09:33:49.922Z,6.03
2019-06-04T09:36:19.854Z,7.93
2019-06-04T09:38:49.955Z,7.17
2019-06-04T09:41:19.414Z,7.20
2019-06-04T09:43:50.145Z,6.30
2019-06-04T09:46:19.764Z,6.27
2019-06-04T09:48:51.629Z,7.20
2019-06-04T09:51:20.554Z,6.30
2019-06-04T09:53:50.714Z,6.03
2019-06-04T09:56:20.019Z,6.67
2019-06-04T09:58:49.351Z,6.70
2019-06-04T10:01:18.752Z,6.37
2019-06-04T10:03:49.242Z,6.03
2019-06-04T10:06:18.662Z,6.07
2019-06-04T10:08:48.028Z,6.67
2019-06-04T10:11:17.365Z,6.20
2019-06-04T10:13:59.803Z,6.30
2019-06-04T10:16:29.146Z,7.93
2019-06-04T10:18:59.140Z,6.87
2019-06-04T10:21:28.537Z,7.30
2019-06-04T10:24:00.934Z,6.57
2019-06-04T10:26:37.328Z,7.43
2019-06-04T10:29:09.035Z,6.80
2019-06-04T10:31:38.893Z,7.90
2019-06-04T10:34:08.414Z,5.80
2019-06-04T10:36:37.982Z,5.63
2019-06-04T10:39:17.866Z,6.90
2019-06-04T10:41:53.365Z,6.63
2019-06-04T10:44:22.854Z,7.00
2019-06-04T10:46:52.208Z,10.03
2019-06-04T10:49:21.541Z,5.63
2019-06-04T10:51:51.754Z,6.07
2019-06-04T10:54:22.494Z,6.80
2019-06-04T10:56:53.808Z,7.00
2019-06-04T10:59:23.303Z,8.90
2019-06-04T11:01:54.044Z,9.50
2019-06-04T11:04:23.653Z,7.57
2019-06-04T11:06:54.469Z,7.80
2019-06-04T11:09:24.307Z,5.70
2019-06-04T11:11:54.886Z,6.67
2019-06-04T11:14:24.239Z,6.63
2019-06-04T11:16:54.992Z,6.60
2019-06-04T11:19:24.813Z,6.33
2019-06-04T11:21:54.506Z,6.40
2019-06-04T11:24:23.905Z,5.90
2019-06-04T11:26:55.045Z,8.53
2019-06-04T11:29:24.563Z,5.77
2019-06-04T11:31:53.901Z,5.90
2019-06-04T11:34:24.864Z,6.97
2019-06-04T11:36:54.421Z,6.30
2019-06-04T11:39:24.683Z,5.93
2019-06-04T11:41:56.659Z,5.47
2019-06-04T11:44:25.487Z,5.70
2019-06-04T11:46:57.741Z,6.47
2019-06-04T11:49:27.055Z,5.67
2019-06-04T11:51:57.366Z,6.00
2019-06-04T11:54:26.877Z,5.53
2019-06-04T11:56:57.991Z,5.83
2019-06-04T11:59:30.076Z,5.70
2019-06-04T12:02:00.483Z,5.67
2019-06-04T12:04:30.271Z,5.47
2019-06-04T12:07:01.189Z,5.30
2019-06-04T12:09:31.571Z,4.30
2019-06-04T12:12:25.600Z,3.97
2019-06-04T12:14:32.312Z,4.17
2019-06-04T12:17:02.462Z,3.50
2019-06-04T12:19:32.327Z,2.90
2019-06-04T12:22:02.079Z,2.90
2019-06-04T12:25:02.338Z,4.23
2019-06-04T12:27:29.963Z,3.63
2019-06-04T12:30:00.893Z,3.87
2019-06-04T12:32:30.371Z,4.40
2019-06-04T12:35:01.086Z,4.63
2019-06-04T12:37:30.633Z,3.50
2019-06-04T12:40:01.896Z,3.90
2019-06-04T12:42:30.966Z,3.90
2019-06-04T12:45:01.797Z,4.10
2019-06-04T12:47:31.492Z,4.50
2019-06-04T12:50:02.809Z,5.73
2019-06-04T12:52:49.877Z,3.80
2019-06-04T12:55:19.251Z,3.70
2019-06-04T12:57:49.018Z,4.00
2019-06-04T13:00:18.387Z,4.57
2019-06-04T13:02:49.098Z,4.47
2019-06-04T13:05:18.744Z,4.30
2019-06-04T13:07:49.105Z,3.43
2019-06-04T13:10:28.100Z,3.47
2019-06-04T13:12:51.879Z,3.43
2019-06-04T13:15:21.539Z,3.63
2019-06-04T13:17:50.875Z,3.00
2019-06-04T13:20:29.908Z,3.13
2019-06-04T13:22:56.529Z,2.77
2019-06-04T13:25:24.782Z,3.33
2019-06-04T13:27:54.631Z,3.97
2019-06-04T13:30:49.938Z,2.90
2019-06-04T13:33:19.746Z,4.00
2019-06-04T13:35:49.031Z,3.70
2019-06-04T13:38:18.542Z,3.40
2019-06-04T13:40:47.960Z,3.10
2019-06-04T13:43:17.322Z,2.80
2019-06-04T13:45:46.773Z,3.00
2019-06-04T13:48:16.193Z,3.33
2019-06-04T13:50:45.610Z,3.50
2019-06-04T13:53:23.669Z,3.43
2019-06-04T13:55:47.486Z,2.90
2019-06-04T13:58:19.559Z,3.20
2019-06-04T14:00:48.039Z,3.40
2019-06-04T14:03:17.450Z,3.60
2019-06-04T14:05:46.895Z,2.97
2019-06-04T14:08:16.307Z,3.13
2019-06-04T14:10:50.334Z,3.57
2019-06-04T14:13:17.229Z,4.33
2019-06-04T14:15:46.677Z,2.67
2019-06-04T14:18:42.321Z,2.50
2019-06-04T14:21:14.846Z,2.30
2019-06-04T14:23:46.992Z,2.57
2019-06-04T14:26:37.656Z,2.10
2019-06-04T14:29:09.141Z,2.93
2019-06-04T14:31:38.643Z,2.60
2019-06-04T14:34:13.143Z,2.33
2019-06-04T14:36:39.154Z,2.73
2019-06-04T14:39:10.554Z,3.07
2019-06-04T14:41:40.981Z,11.27
2019-06-04T14:44:11.491Z,4.10
2019-06-04T14:46:42.111Z,3.10
2019-06-04T14:49:11.826Z,2.67
2019-06-04T14:51:41.334Z,2.67
2019-06-04T14:54:11.687Z,2.90
2019-06-04T14:56:41.903Z,2.60
2019-06-04T14:59:17.870Z,2.43
2019-06-04T15:01:42.400Z,2.50
2019-06-04T15:04:12.228Z,3.20
2019-06-04T15:06:41.918Z,3.10
2019-06-04T15:09:11.426Z,4.13
2019-06-04T15:11:46.333Z,3.33
2019-06-04T15:14:12.691Z,2.73
2019-06-04T15:16:43.062Z,3.37
2019-06-04T15:19:14.310Z,3.10
2019-06-04T15:21:44.037Z,3.20
2019-06-04T15:24:14.740Z,3.60
2019-06-04T15:26:44.407Z,3.07
2019-06-04T15:29:15.216Z,2.67
2019-06-04T15:31:45.369Z,3.30
2019-06-04T15:34:18.279Z,3.30
2019-06-04T15:36:47.879Z,2.60
2019-06-04T15:39:18.484Z,2.97
2019-06-04T15:41:48.012Z,3.23
2019-06-04T15:44:17.720Z,4.43
2019-06-04T15:46:47.558Z,4.20
2019-06-04T15:49:17.811Z,3.80
2019-06-04T15:51:47.303Z,2.97
2019-06-04T15:54:16.656Z,3.53
2019-06-04T15:56:45.950Z,3.50
2019-06-04T15:59:16.494Z,3.73
2019-06-04T16:01:46.011Z,5.33
2019-06-04T16:04:15.512Z,3.80
2019-06-04T16:06:44.881Z,4.20
2019-06-04T16:09:14.253Z,3.90
2019-06-04T16:11:43.765Z,3.73
2019-06-04T16:14:13.193Z,4.43
2019-06-04T16:16:44.642Z,4.00
2019-06-04T16:19:14.018Z,4.10
2019-06-04T16:21:43.387Z,3.77
2019-06-04T16:24:12.763Z,4.60
2019-06-04T16:26:42.185Z,4.03
2019-06-04T16:29:15.111Z,3.73
2019-06-04T16:31:43.016Z,3.17
2019-06-04T16:34:14.183Z,3.70
2019-06-04T16:36:43.539Z,3.17
2019-06-04T16:39:12.934Z,3.60
2019-06-04T16:41:42.480Z,3.33
2019-06-04T16:44:11.932Z,4.03
2019-06-04T16:46:41.518Z,4.50
2019-06-04T16:49:10.877Z,3.40
2019-06-04T16:51:40.193Z,3.10
2019-06-04T16:54:09.558Z,3.20
2019-06-04T16:56:38.976Z,3.60
2019-06-04T16:59:08.387Z,3.47
2019-06-04T17:01:37.644Z,3.30
2019-06-04T17:04:06.969Z,3.50
2019-06-04T17:06:36.371Z,8.23
2019-06-04T17:09:07.444Z,5.77
2019-06-04T17:11:36.980Z,4.23
2019-06-04T17:14:06.647Z,3.73
2019-06-04T17:16:36.474Z,3.33
2019-06-04T17:19:05.878Z,3.30
2019-06-04T17:21:35.277Z,3.50
2019-06-04T17:24:04.936Z,3.70
2019-06-04T17:26:34.533Z,3.33
2019-06-04T17:29:04.054Z,3.57
2019-06-04T17:31:33.474Z,3.63
2019-06-04T17:34:02.885Z,3.17
2019-06-04T17:36:32.886Z,3.93
2019-06-04T17:39:02.429Z,3.10
2019-06-04T17:41:31.848Z,3.40
2019-06-04T17:44:01.268Z,3.97
2019-06-04T17:46:31.937Z,3.90
2019-06-04T17:49:01.430Z,3.83
2019-06-04T17:51:32.965Z,4.50
2019-06-04T17:54:02.901Z,5.30
2019-06-04T17:56:32.740Z,4.87
2019-06-04T17:59:02.202Z,4.17
2019-06-04T18:01:31.623Z,7.07
2019-06-04T18:04:01.039Z,4.40
2019-06-04T18:06:33.699Z,4.97
2019-06-04T18:09:04.795Z,5.50
2019-06-04T18:11:35.305Z,5.23
2019-06-04T18:14:04.781Z,7.50
2019-06-04T18:16:34.124Z,5.87
2019-06-04T18:19:27.621Z,6.83
2019-06-04T18:21:58.122Z,5.87
2019-06-04T18:24:28.225Z,6.10
2019-06-04T18:26:58.131Z,5.63
2019-06-04T18:29:27.658Z,6.30
2019-06-04T18:31:57.111Z,6.60
2019-06-04T18:34:29.239Z,6.40
2019-06-04T18:36:58.893Z,6.57
2019-06-04T18:39:32.710Z,6.33
2019-06-04T18:42:02.447Z,7.93
2019-06-04T18:44:32.449Z,6.70
2019-06-04T18:47:02.796Z,6.90
2019-06-04T18:49:32.951Z,8.40
2019-06-04T18:52:02.689Z,6.90
2019-06-04T18:54:35.477Z,7.70
2019-06-04T18:57:07.954Z,7.23
2019-06-04T18:59:38.306Z,7.53
2019-06-04T19:02:07.892Z,7.00
2019-06-04T19:04:37.242Z,8.50
2019-06-04T19:07:10.080Z,8.27
2019-06-04T19:09:39.500Z,7.57
2019-06-04T19:12:08.955Z,7.20
2019-06-04T19:14:39.419Z,8.70
2019-06-04T19:17:09.022Z,8.23
2019-06-04T19:19:38.470Z,8.10
2019-06-04T19:22:07.791Z,7.17
2019-06-04T19:24:37.301Z,7.53
2019-06-04T19:27:06.783Z,7.80
2019-06-04T19:29:37.788Z,8.03
2019-06-04T19:32:07.777Z,7.43
2019-06-04T19:34:40.306Z,7.70
2019-06-04T19:37:14.646Z,8.17
2019-06-04T19:39:45.549Z,8.57
2019-06-04T19:42:18.248Z,10.07
2019-06-04T19:44:47.717Z,9.10
2019-06-04T19:47:18.233Z,9.60
2019-06-04T19:49:47.633Z,9.13
2019-06-04T19:52:24.466Z,8.33
2019-06-04T19:54:53.978Z,8.20
2019-06-04T19:57:23.981Z,8.37
2019-06-04T19:59:56.491Z,9.97
2019-06-04T20:02:27.161Z,7.93
2019-06-04T20:04:57.107Z,10.73
2019-06-04T20:07:26.453Z,8.67
2019-06-04T20:09:55.929Z,9.20
2019-06-04T20:12:25.465Z,10.10
2019-06-04T20:14:56.108Z,8.87
2019-06-04T20:17:25.395Z,9.67
2019-06-04T20:19:54.854Z,10.53
2019-06-04T20:22:24.387Z,10.13
2019-06-04T20:24:54.917Z,10.53
2019-06-04T20:27:24.409Z,9.77
2019-06-04T20:29:55.977Z,9.47
2019-06-04T20:32:25.349Z,9.50
2019-06-04T20:34:54.774Z,9.60
2019-06-04T20:37:24.195Z,10.10
2019-06-04T20:39:53.710Z,11.63
2019-06-04T20:42:23.289Z,10.00
2019-06-04T20:45:11.933Z,11.63
2019-06-04T20:47:25.296Z,11.40
2019-06-04T20:49:54.806Z,10.00
2019-06-04T20:52:24.343Z,10.40
2019-06-04T20:54:56.236Z,11.17
2019-06-04T20:57:25.696Z,10.20
2019-06-04T20:59:55.029Z,10.90
2019-06-04T21:02:24.551Z,10.87
2019-06-04T21:04:55.111Z,12.50
2019-06-04T21:07:24.924Z,11.03
2019-06-04T21:09:55.450Z,11.83
2019-06-04T21:12:25.045Z,11.57
2019-06-04T21:14:55.743Z,11.60
2019-06-04T21:17:25.205Z,12.00
2019-06-04T21:19:54.612Z,11.63
2019-06-04T21:22:24.018Z,10.77
2019-06-04T21:24:53.408Z,11.00
2019-06-04T21:27:22.796Z,11.83
2019-06-04T21:29:52.354Z,12.20
2019-06-04T21:32:24.544Z,12.57
2019-06-04T21:34:55.270Z,13.67
2019-06-04T21:37:25.452Z,12.60
2019-06-04T21:39:58.196Z,11.10
2019-06-04T21:42:25.973Z,12.67
2019-06-04T21:44:57.060Z,12.70
2019-06-04T21:47:33.487Z,13.00
2019-06-04T21:50:03.233Z,12.83
2019-06-04T21:52:33.157Z,14.20
2019-06-04T21:55:23.459Z,12.77
2019-06-04T21:57:52.801Z,13.70
2019-06-04T22:00:23.274Z,13.27
2019-06-04T22:02:53.885Z,13.53
2019-06-04T22:05:23.680Z,14.00
2019-06-04T22:07:54.047Z,13.10
2019-06-04T22:10:23.501Z,13.47
2019-06-04T22:12:54.110Z,13.67
2019-06-04T22:15:23.569Z,14.80
2019-06-04T22:17:54.652Z,13.73
2019-06-04T22:20:24.275Z,14.50
2019-06-04T22:22:53.762Z,14.73
2019-06-04T22:25:23.284Z,14.13
2019-06-04T22:27:52.997Z,14.33
2019-06-04T22:30:22.503Z,14.87
2019-06-04T22:32:51.956Z,13.90
2019-06-04T22:35:40.991Z,15.43
2019-06-04T22:38:10.554Z,14.20
2019-06-04T22:40:40.033Z,15.13
2019-06-04T22:43:09.445Z,15.00
2019-06-04T22:45:38.761Z,15.70
2019-06-04T22:48:08.194Z,15.00
2019-06-04T22:50:37.494Z,15.60
2019-06-04T22:53:06.915Z,15.40
2019-06-04T22:55:36.217Z,17.83
2019-06-04T22:58:05.643Z,17.00
2019-06-04T23:00:35.109Z,16.47
2019-06-04T23:03:04.402Z,17.07
2019-06-04T23:05:33.661Z,15.97
2019-06-04T23:08:03.029Z,14.73
2019-06-04T23:10:32.414Z,15.10
2019-06-04T23:13:02.972Z,15.50
2019-06-04T23:15:32.448Z,15.47
2019-06-04T23:18:06.500Z,15.93
2019-06-04T23:20:33.313Z,16.63
2019-06-04T23:23:03.640Z,17.23
2019-06-04T23:25:33.846Z,17.57
2019-06-04T23:28:04.618Z,15.97
2019-06-04T23:30:34.172Z,17.20
2019-06-04T23:33:04.625Z,18.80
2019-06-04T23:35:34.038Z,18.73
2019-06-04T23:38:03.419Z,17.57
2019-06-04T23:40:32.768Z,18.33
2019-06-04T23:43:03.746Z,17.43
2019-06-04T23:45:33.150Z,17.50
2019-06-04T23:48:02.624Z,18.93
2019-06-04T23:50:31.903Z,18.80
2019-06-04T23:53:01.611Z,17.70
2019-06-04T23:55:31.031Z,18.93
2019-06-04T23:58:00.456Z,18.03
